This is the latest recevied weather packets stored in our database for station/object ZL2VAX. If no packets are shown the sender has not sent any weather packets the latest 10 day(s).
| Time | Temp. | Humidity | Pressure | Rain* | Wind** | Luminosity | Snow |
|---|---|---|---|---|---|---|---|
| 1778106373 | 18.89° C | 65% | 1023.7 hPa | 0 mm | - | - | - |
| 1778104606 | 18.33° C | 63% | 1024 hPa | 0 mm | - | - | - |
| 1778102757 | 17.22° C | 67% | 1024.4 hPa | 0 mm | - | - | - |
| 1778098559 | 15° C | 73% | 1024.8 hPa | 0 mm | - | - | - |
| 1778097957 | 15° C | 73% | 1024.8 hPa | 0 mm | - | - | - |
| 1778085958 | 9.44° C | 94% | 1025.7 hPa | 0 mm | - | - | - |
| 1778081726 | 11.67° C | 92% | 1026.1 hPa | 0 mm | - | - | - |
| 1778077569 | 12.78° C | 91% | 1026.9 hPa | 0 mm | - | - | - |
| 1778074555 | 12.78° C | 92% | 1027.1 hPa | 0 mm | - | - | - |
| 1778066722 | 15.56° C | 90% | 1027 hPa | 0 mm | - | - | - |
| 1778064372 | 14.44° C | 92% | 1027.3 hPa | 0 mm | - | - | - |
| 1778058949 | 15° C | 92% | 1027.8 hPa | 0 mm | - | - | - |
| 1778056538 | 15° C | 92% | 1027.7 hPa | 0 mm | - | - | - |
| 1778048163 | 16.11° C | 87% | 1027.4 hPa | 0 mm | - | - | - |
| 1778041554 | 19.44° C | 71% | 1027 hPa | 0 mm | - | - | - |
| 1778034986 | 18.89° C | 73% | 1027.1 hPa | 0 mm | - | - | - |
| 1778033761 | 18.89° C | 72% | 1027.2 hPa | 0 mm | - | - | - |
| 1778028358 | 19.44° C | 71% | 1027.7 hPa | 0 mm | - | - | - |
| 1778027137 | 19.44° C | 69% | 1027.8 hPa | 0 mm | - | - | - |
| 1778026534 | 19.44° C | 69% | 1028 hPa | 0 mm | - | - | - |
| 1778024140 | 19.44° C | 70% | 1028.3 hPa | 0 mm | - | - | - |
| 1778023558 | 18.89° C | 70% | 1028.4 hPa | 0 mm | - | - | - |
| 1778022994 | 18.89° C | 70% | 1028.4 hPa | 0 mm | - | - | - |
| 1778020564 | 17.78° C | 74% | 1028.7 hPa | 0 mm | - | - | - |
| 1778020002 | 17.22° C | 75% | 1028.9 hPa | 0 mm | - | - | - |
* Rain latest hour (hover to see other rain measurements)
** Current wind speed in m/s (hover to see current wind gust speed)